sensor_id;sensor_type;location;lat;lon;timestamp;temperature;humidity
10057;DHT22;5068;51.286;7.518;2023-03-01T00:00:52;-2.50;53.30
10057;DHT22;5068;51.286;7.518;2023-03-01T00:02:25;-2.50;53.30
10057;DHT22;5068;51.286;7.518;2023-03-01T00:03:59;-2.60;53.10
10057;DHT22;5068;51.286;7.518;2023-03-01T00:05:32;-2.60;53.20
10057;DHT22;5068;51.286;7.518;2023-03-01T00:07:06;-2.60;53.20
10057;DHT22;5068;51.286;7.518;2023-03-01T00:08:39;-2.60;53.10
10057;DHT22;5068;51.286;7.518;2023-03-01T00:10:13;-2.60;53.20
10057;DHT22;5068;51.286;7.518;2023-03-01T00:11:46;-2.70;53.10
10057;DHT22;5068;51.286;7.518;2023-03-01T00:13:21;-2.70;53.10
10057;DHT22;5068;51.286;7.518;2023-03-01T00:14:54;-2.70;53.20
10057;DHT22;5068;51.286;7.518;2023-03-01T00:16:30;-2.70;53.30
10057;DHT22;5068;51.286;7.518;2023-03-01T00:18:05;-2.70;53.20
10057;DHT22;5068;51.286;7.518;2023-03-01T00:19:39;-2.80;53.10
10057;DHT22;5068;51.286;7.518;2023-03-01T00:21:12;-2.80;53.10
10057;DHT22;5068;51.286;7.518;2023-03-01T00:22:46;-2.80;53.10
10057;DHT22;5068;51.286;7.518;2023-03-01T00:24:19;-2.80;53.20
10057;DHT22;5068;51.286;7.518;2023-03-01T00:25:53;-2.80;53.20
10057;DHT22;5068;51.286;7.518;2023-03-01T00:27:25;-2.80;53.20
10057;DHT22;5068;51.286;7.518;2023-03-01T00:28:59;-2.90;53.10
10057;DHT22;5068;51.286;7.518;2023-03-01T00:30:33;-2.90;53.20
10057;DHT22;5068;51.286;7.518;2023-03-01T00:32:06;-2.90;53.30
10057;DHT22;5068;51.286;7.518;2023-03-01T00:33:39;-2.90;53.30
10057;DHT22;5068;51.286;7.518;2023-03-01T00:35:12;-2.90;53.40
10057;DHT22;5068;51.286;7.518;2023-03-01T00:36:46;-2.90;53.50
10057;DHT22;5068;51.286;7.518;2023-03-01T00:38:20;-3.00;53.30
10057;DHT22;5068;51.286;7.518;2023-03-01T00:39:54;-3.00;53.40
10057;DHT22;5068;51.286;7.518;2023-03-01T00:41:26;-3.00;53.40
10057;DHT22;5068;51.286;7.518;2023-03-01T00:43:00;-3.00;53.40
10057;DHT22;5068;51.286;7.518;2023-03-01T00:44:34;-3.00;53.50
10057;DHT22;5068;51.286;7.518;2023-03-01T00:46:09;-3.00;53.40
10057;DHT22;5068;51.286;7.518;2023-03-01T00:47:44;-3.00;53.50
10057;DHT22;5068;51.286;7.518;2023-03-01T00:49:17;-3.10;53.50
10057;DHT22;5068;51.286;7.518;2023-03-01T00:50:51;-3.10;53.50
10057;DHT22;5068;51.286;7.518;2023-03-01T00:52:23;-3.10;53.50
10057;DHT22;5068;51.286;7.518;2023-03-01T00:54:00;-3.10;53.40
10057;DHT22;5068;51.286;7.518;2023-03-01T00:55:36;-3.10;53.40
10057;DHT22;5068;51.286;7.518;2023-03-01T00:57:10;-3.10;53.40
10057;DHT22;5068;51.286;7.518;2023-03-01T00:58:43;-3.10;53.40
10057;DHT22;5068;51.286;7.518;2023-03-01T01:00:18;-3.20;53.30
10057;DHT22;5068;51.286;7.518;2023-03-01T01:01:53;-3.20;53.40
10057;DHT22;5068;51.286;7.518;2023-03-01T01:03:26;-3.20;53.30
10057;DHT22;5068;51.286;7.518;2023-03-01T01:05:00;-3.20;53.40
10057;DHT22;5068;51.286;7.518;2023-03-01T01:06:35;-3.20;53.40
10057;DHT22;5068;51.286;7.518;2023-03-01T01:08:09;-3.30;53.40
10057;DHT22;5068;51.286;7.518;2023-03-01T01:09:44;-3.30;53.40
10057;DHT22;5068;51.286;7.518;2023-03-01T01:11:18;-3.30;53.40
10057;DHT22;5068;51.286;7.518;2023-03-01T01:12:51;-3.30;53.40
10057;DHT22;5068;51.286;7.518;2023-03-01T01:14:25;-3.30;53.40
10057;DHT22;5068;51.286;7.518;2023-03-01T01:16:00;-3.30;53.40
10057;DHT22;5068;51.286;7.518;2023-03-01T01:17:33;-3.40;53.40
10057;DHT22;5068;51.286;7.518;2023-03-01T01:19:06;-3.40;53.40
10057;DHT22;5068;51.286;7.518;2023-03-01T01:20:40;-3.40;53.30
10057;DHT22;5068;51.286;7.518;2023-03-01T01:22:13;-3.40;53.50
10057;DHT22;5068;51.286;7.518;2023-03-01T01:23:47;-3.40;53.50
10057;DHT22;5068;51.286;7.518;2023-03-01T01:25:21;-3.40;53.50
10057;DHT22;5068;51.286;7.518;2023-03-01T01:26:56;-3.40;53.50
10057;DHT22;5068;51.286;7.518;2023-03-01T01:28:30;-3.50;53.40
10057;DHT22;5068;51.286;7.518;2023-03-01T01:30:04;-3.50;53.40
10057;DHT22;5068;51.286;7.518;2023-03-01T01:31:39;-3.50;53.40
10057;DHT22;5068;51.286;7.518;2023-03-01T01:33:14;-3.50;53.50
10057;DHT22;5068;51.286;7.518;2023-03-01T01:34:46;-3.50;53.40
10057;DHT22;5068;51.286;7.518;2023-03-01T01:36:20;-3.50;53.50
10057;DHT22;5068;51.286;7.518;2023-03-01T01:37:54;-3.60;53.40
10057;DHT22;5068;51.286;7.518;2023-03-01T01:39:26;-3.60;53.40
10057;DHT22;5068;51.286;7.518;2023-03-01T01:41:01;-3.60;53.40
10057;DHT22;5068;51.286;7.518;2023-03-01T01:42:34;-3.60;53.40
10057;DHT22;5068;51.286;7.518;2023-03-01T01:44:17;-3.60;53.50
10057;DHT22;5068;51.286;7.518;2023-03-01T01:45:54;-3.70;53.50
10057;DHT22;5068;51.286;7.518;2023-03-01T01:47:32;-3.70;53.40
10057;DHT22;5068;51.286;7.518;2023-03-01T01:49:07;-3.70;53.50
10057;DHT22;5068;51.286;7.518;2023-03-01T01:50:55;-3.70;53.50
10057;DHT22;5068;51.286;7.518;2023-03-01T01:52:34;-3.70;53.50
10057;DHT22;5068;51.286;7.518;2023-03-01T01:54:15;-3.70;53.50
10057;DHT22;5068;51.286;7.518;2023-03-01T01:55:54;-3.80;53.40
10057;DHT22;5068;51.286;7.518;2023-03-01T01:57:36;-3.80;53.40
10057;DHT22;5068;51.286;7.518;2023-03-01T01:59:12;-3.80;53.40
10057;DHT22;5068;51.286;7.518;2023-03-01T02:00:48;-3.80;53.50
10057;DHT22;5068;51.286;7.518;2023-03-01T02:02:22;-3.80;53.50
10057;DHT22;5068;51.286;7.518;2023-03-01T02:03:55;-3.80;53.40
10057;DHT22;5068;51.286;7.518;2023-03-01T02:05:39;-3.80;53.50
10057;DHT22;5068;51.286;7.518;2023-03-01T02:07:23;-3.90;53.50
10057;DHT22;5068;51.286;7.518;2023-03-01T02:09:02;-3.90;53.50
10057;DHT22;5068;51.286;7.518;2023-03-01T02:10:40;-3.90;53.50
10057;DHT22;5068;51.286;7.518;2023-03-01T02:12:16;-3.90;53.50
10057;DHT22;5068;51.286;7.518;2023-03-01T02:13:54;-3.90;53.30
10057;DHT22;5068;51.286;7.518;2023-03-01T02:15:32;-3.90;53.40
10057;DHT22;5068;51.286;7.518;2023-03-01T02:17:05;-3.90;53.40
10057;DHT22;5068;51.286;7.518;2023-03-01T02:18:40;-3.90;53.40
10057;DHT22;5068;51.286;7.518;2023-03-01T02:20:22;-4.00;53.30
10057;DHT22;5068;51.286;7.518;2023-03-01T02:22:02;-3.90;53.40
10057;DHT22;5068;51.286;7.518;2023-03-01T02:23:44;-4.00;53.30
10057;DHT22;5068;51.286;7.518;2023-03-01T02:25:29;-4.00;53.30
10057;DHT22;5068;51.286;7.518;2023-03-01T02:27:08;-4.00;53.30
10057;DHT22;5068;51.286;7.518;2023-03-01T02:28:43;-4.00;53.30
10057;DHT22;5068;51.286;7.518;2023-03-01T02:30:18;-4.10;53.20
10057;DHT22;5068;51.286;7.518;2023-03-01T02:31:55;-4.10;53.20
10057;DHT22;5068;51.286;7.518;2023-03-01T02:33:31;-4.00;53.30
10057;DHT22;5068;51.286;7.518;2023-03-01T02:35:09;-4.10;53.30
10057;DHT22;5068;51.286;7.518;2023-03-01T02:36:49;-4.10;53.30
10057;DHT22;5068;51.286;7.518;2023-03-01T02:38:25;-4.20;53.30
10057;DHT22;5068;51.286;7.518;2023-03-01T02:40:04;-4.20;53.30
10057;DHT22;5068;51.286;7.518;2023-03-01T02:41:46;-4.20;53.30
10057;DHT22;5068;51.286;7.518;2023-03-01T02:43:26;-4.20;53.40
10057;DHT22;5068;51.286;7.518;2023-03-01T02:45:03;-4.20;53.40
10057;DHT22;5068;51.286;7.518;2023-03-01T02:46:42;-4.30;53.30
10057;DHT22;5068;51.286;7.518;2023-03-01T02:48:17;-4.30;53.30
10057;DHT22;5068;51.286;7.518;2023-03-01T02:49:49;-4.30;53.30
10057;DHT22;5068;51.286;7.518;2023-03-01T02:51:34;-4.30;53.30
10057;DHT22;5068;51.286;7.518;2023-03-01T02:53:23;-4.30;53.40
10057;DHT22;5068;51.286;7.518;2023-03-01T02:55:06;-4.30;53.30
10057;DHT22;5068;51.286;7.518;2023-03-01T02:56:42;-4.30;53.30
10057;DHT22;5068;51.286;7.518;2023-03-01T02:58:21;-4.40;53.30
10057;DHT22;5068;51.286;7.518;2023-03-01T02:59:56;-4.40;53.20
10057;DHT22;5068;51.286;7.518;2023-03-01T03:01:36;-4.40;53.30
10057;DHT22;5068;51.286;7.518;2023-03-01T03:03:14;-4.40;53.30
10057;DHT22;5068;51.286;7.518;2023-03-01T03:04:49;-4.40;53.40
10057;DHT22;5068;51.286;7.518;2023-03-01T03:06:24;-4.40;53.30
10057;DHT22;5068;51.286;7.518;2023-03-01T03:08:00;-4.40;53.30
10057;DHT22;5068;51.286;7.518;2023-03-01T03:09:40;-4.50;53.30
10057;DHT22;5068;51.286;7.518;2023-03-01T03:11:14;-4.50;53.30
10057;DHT22;5068;51.286;7.518;2023-03-01T03:12:50;-4.50;53.30
10057;DHT22;5068;51.286;7.518;2023-03-01T03:14:27;-4.50;53.30
10057;DHT22;5068;51.286;7.518;2023-03-01T03:16:02;-4.50;53.30
10057;DHT22;5068;51.286;7.518;2023-03-01T03:17:42;-4.60;53.30
10057;DHT22;5068;51.286;7.518;2023-03-01T03:19:19;-4.50;53.30
10057;DHT22;5068;51.286;7.518;2023-03-01T03:20:54;-4.50;53.30
10057;DHT22;5068;51.286;7.518;2023-03-01T03:22:28;-4.60;53.20
10057;DHT22;5068;51.286;7.518;2023-03-01T03:24:02;-4.60;53.20
10057;DHT22;5068;51.286;7.518;2023-03-01T03:25:37;-4.60;53.20
10057;DHT22;5068;51.286;7.518;2023-03-01T03:27:11;-4.60;53.20
10057;DHT22;5068;51.286;7.518;2023-03-01T03:28:45;-4.60;53.20
10057;DHT22;5068;51.286;7.518;2023-03-01T03:30:19;-4.70;53.10
10057;DHT22;5068;51.286;7.518;2023-03-01T03:31:56;-4.70;53.10
10057;DHT22;5068;51.286;7.518;2023-03-01T03:33:32;-4.70;53.10
10057;DHT22;5068;51.286;7.518;2023-03-01T03:35:08;-4.70;53.10
10057;DHT22;5068;51.286;7.518;2023-03-01T03:36:43;-4.70;53.20
10057;DHT22;5068;51.286;7.518;2023-03-01T03:38:18;-4.70;53.20
10057;DHT22;5068;51.286;7.518;2023-03-01T03:39:54;-4.70;53.20
10057;DHT22;5068;51.286;7.518;2023-03-01T03:41:28;-4.80;53.20
10057;DHT22;5068;51.286;7.518;2023-03-01T03:43:02;-4.70;53.30
10057;DHT22;5068;51.286;7.518;2023-03-01T03:44:36;-4.80;53.20
10057;DHT22;5068;51.286;7.518;2023-03-01T03:46:11;-4.80;53.20
10057;DHT22;5068;51.286;7.518;2023-03-01T03:47:44;-4.80;53.30
10057;DHT22;5068;51.286;7.518;2023-03-01T03:49:19;-4.90;53.20
10057;DHT22;5068;51.286;7.518;2023-03-01T03:50:55;-4.90;53.20
10057;DHT22;5068;51.286;7.518;2023-03-01T03:52:29;-4.80;53.30
10057;DHT22;5068;51.286;7.518;2023-03-01T03:54:02;-5.00;53.20
10057;DHT22;5068;51.286;7.518;2023-03-01T03:55:37;-4.90;53.30
10057;DHT22;5068;51.286;7.518;2023-03-01T03:57:11;-4.90;53.30
10057;DHT22;5068;51.286;7.518;2023-03-01T03:58:45;-4.90;53.30
10057;DHT22;5068;51.286;7.518;2023-03-01T04:00:21;-5.00;53.30
10057;DHT22;5068;51.286;7.518;2023-03-01T04:01:56;-5.00;53.30
10057;DHT22;5068;51.286;7.518;2023-03-01T04:03:31;-5.00;53.20
10057;DHT22;5068;51.286;7.518;2023-03-01T04:05:10;-4.90;53.30
10057;DHT22;5068;51.286;7.518;2023-03-01T04:06:46;-5.00;53.30
10057;DHT22;5068;51.286;7.518;2023-03-01T04:08:22;-5.00;53.30
10057;DHT22;5068;51.286;7.518;2023-03-01T04:09:56;-5.00;53.30
10057;DHT22;5068;51.286;7.518;2023-03-01T04:11:29;-5.00;53.30
10057;DHT22;5068;51.286;7.518;2023-03-01T04:13:03;-5.00;53.40
10057;DHT22;5068;51.286;7.518;2023-03-01T04:14:37;-5.10;53.30
10057;DHT22;5068;51.286;7.518;2023-03-01T04:16:12;-5.10;53.40
10057;DHT22;5068;51.286;7.518;2023-03-01T04:17:46;-5.10;53.30
10057;DHT22;5068;51.286;7.518;2023-03-01T04:19:19;-5.10;53.40
10057;DHT22;5068;51.286;7.518;2023-03-01T04:20:54;-5.10;53.40
10057;DHT22;5068;51.286;7.518;2023-03-01T04:22:29;-5.10;53.40
10057;DHT22;5068;51.286;7.518;2023-03-01T04:24:04;-5.10;53.30
10057;DHT22;5068;51.286;7.518;2023-03-01T04:25:40;-5.10;53.30
10057;DHT22;5068;51.286;7.518;2023-03-01T04:27:14;-5.10;53.30
10057;DHT22;5068;51.286;7.518;2023-03-01T04:28:48;-5.10;53.30
10057;DHT22;5068;51.286;7.518;2023-03-01T04:30:22;-5.10;53.30
10057;DHT22;5068;51.286;7.518;2023-03-01T04:31:57;-5.20;53.20
10057;DHT22;5068;51.286;7.518;2023-03-01T04:33:31;-5.20;53.20
10057;DHT22;5068;51.286;7.518;2023-03-01T04:35:05;-5.20;53.20
10057;DHT22;5068;51.286;7.518;2023-03-01T04:36:40;-5.20;53.20
10057;DHT22;5068;51.286;7.518;2023-03-01T04:38:20;-5.20;53.20
10057;DHT22;5068;51.286;7.518;2023-03-01T04:39:53;-5.20;53.20
10057;DHT22;5068;51.286;7.518;2023-03-01T04:41:27;-5.20;53.20
10057;DHT22;5068;51.286;7.518;2023-03-01T04:43:01;-5.20;53.20
10057;DHT22;5068;51.286;7.518;2023-03-01T04:44:35;-5.20;53.20
10057;DHT22;5068;51.286;7.518;2023-03-01T04:46:11;-5.30;53.20
10057;DHT22;5068;51.286;7.518;2023-03-01T04:47:47;-5.20;53.20
10057;DHT22;5068;51.286;7.518;2023-03-01T04:49:21;-5.30;53.30
10057;DHT22;5068;51.286;7.518;2023-03-01T04:50:55;-5.20;53.40
10057;DHT22;5068;51.286;7.518;2023-03-01T04:52:30;-5.30;53.30
10057;DHT22;5068;51.286;7.518;2023-03-01T04:54:04;-5.30;53.20
10057;DHT22;5068;51.286;7.518;2023-03-01T04:55:40;-5.30;53.30
10057;DHT22;5068;51.286;7.518;2023-03-01T04:57:14;-5.30;53.30
10057;DHT22;5068;51.286;7.518;2023-03-01T04:58:48;-5.30;53.30
10057;DHT22;5068;51.286;7.518;2023-03-01T05:00:23;-5.40;53.20
10057;DHT22;5068;51.286;7.518;2023-03-01T05:01:57;-5.40;53.30
10057;DHT22;5068;51.286;7.518;2023-03-01T05:03:32;-5.40;53.20
10057;DHT22;5068;51.286;7.518;2023-03-01T05:05:07;-5.40;53.20
10057;DHT22;5068;51.286;7.518;2023-03-01T05:06:41;-5.40;53.10
10057;DHT22;5068;51.286;7.518;2023-03-01T05:08:16;-5.40;53.10
10057;DHT22;5068;51.286;7.518;2023-03-01T05:09:51;-5.40;53.20
10057;DHT22;5068;51.286;7.518;2023-03-01T05:11:26;-5.40;53.20
10057;DHT22;5068;51.286;7.518;2023-03-01T05:13:04;-5.40;53.30
10057;DHT22;5068;51.286;7.518;2023-03-01T05:14:38;-5.50;53.10
10057;DHT22;5068;51.286;7.518;2023-03-01T05:16:13;-5.50;53.10
10057;DHT22;5068;51.286;7.518;2023-03-01T05:17:47;-5.50;53.10
10057;DHT22;5068;51.286;7.518;2023-03-01T05:19:21;-5.50;53.20
10057;DHT22;5068;51.286;7.518;2023-03-01T05:20:56;-5.50;53.10
10057;DHT22;5068;51.286;7.518;2023-03-01T05:22:37;-5.50;53.20
10057;DHT22;5068;51.286;7.518;2023-03-01T05:24:12;-5.60;53.10
10057;DHT22;5068;51.286;7.518;2023-03-01T05:25:46;-5.60;53.30
10057;DHT22;5068;51.286;7.518;2023-03-01T05:27:21;-5.60;53.20
10057;DHT22;5068;51.286;7.518;2023-03-01T05:28:54;-5.60;53.20
10057;DHT22;5068;51.286;7.518;2023-03-01T05:30:32;-5.60;53.20
10057;DHT22;5068;51.286;7.518;2023-03-01T05:32:06;-5.60;53.20
10057;DHT22;5068;51.286;7.518;2023-03-01T05:33:41;-5.60;53.20
10057;DHT22;5068;51.286;7.518;2023-03-01T05:35:17;-5.60;53.20
10057;DHT22;5068;51.286;7.518;2023-03-01T05:36:52;-5.60;53.30
10057;DHT22;5068;51.286;7.518;2023-03-01T05:38:26;-5.70;53.20
10057;DHT22;5068;51.286;7.518;2023-03-01T05:40:02;-5.70;53.20
10057;DHT22;5068;51.286;7.518;2023-03-01T05:41:37;-5.70;53.10
10057;DHT22;5068;51.286;7.518;2023-03-01T05:43:14;-5.70;53.20
10057;DHT22;5068;51.286;7.518;2023-03-01T05:44:50;-5.70;53.20
10057;DHT22;5068;51.286;7.518;2023-03-01T05:46:24;-5.70;53.20
10057;DHT22;5068;51.286;7.518;2023-03-01T05:47:58;-5.70;53.20
10057;DHT22;5068;51.286;7.518;2023-03-01T05:49:32;-5.70;53.20
10057;DHT22;5068;51.286;7.518;2023-03-01T05:51:08;-5.80;53.10
10057;DHT22;5068;51.286;7.518;2023-03-01T05:52:42;-5.80;53.10
10057;DHT22;5068;51.286;7.518;2023-03-01T05:54:15;-5.70;53.10
10057;DHT22;5068;51.286;7.518;2023-03-01T05:55:51;-5.80;53.10
10057;DHT22;5068;51.286;7.518;2023-03-01T05:57:25;-5.80;53.10
10057;DHT22;5068;51.286;7.518;2023-03-01T05:59:03;-5.80;53.10
10057;DHT22;5068;51.286;7.518;2023-03-01T06:00:38;-5.80;53.10
10057;DHT22;5068;51.286;7.518;2023-03-01T06:02:12;-5.80;53.10
10057;DHT22;5068;51.286;7.518;2023-03-01T06:03:46;-5.80;53.10
10057;DHT22;5068;51.286;7.518;2023-03-01T06:05:20;-5.90;53.10
10057;DHT22;5068;51.286;7.518;2023-03-01T06:06:54;-5.90;53.00
10057;DHT22;5068;51.286;7.518;2023-03-01T06:08:32;-5.90;53.00
10057;DHT22;5068;51.286;7.518;2023-03-01T06:10:07;-5.90;53.00
10057;DHT22;5068;51.286;7.518;2023-03-01T06:11:42;-5.90;53.20
10057;DHT22;5068;51.286;7.518;2023-03-01T06:13:18;-5.90;53.10
10057;DHT22;5068;51.286;7.518;2023-03-01T06:14:51;-5.90;53.10
10057;DHT22;5068;51.286;7.518;2023-03-01T06:16:24;-5.90;53.20
10057;DHT22;5068;51.286;7.518;2023-03-01T06:17:57;-5.90;53.30
10057;DHT22;5068;51.286;7.518;2023-03-01T06:19:31;-6.00;53.30
10057;DHT22;5068;51.286;7.518;2023-03-01T06:21:04;-6.00;53.30
10057;DHT22;5068;51.286;7.518;2023-03-01T06:22:38;-6.00;53.40
10057;DHT22;5068;51.286;7.518;2023-03-01T06:24:10;-6.00;53.30
10057;DHT22;5068;51.286;7.518;2023-03-01T06:25:43;-5.90;53.40
10057;DHT22;5068;51.286;7.518;2023-03-01T06:27:17;-6.00;53.90
10057;DHT22;5068;51.286;7.518;2023-03-01T06:28:50;-6.00;53.30
10057;DHT22;5068;51.286;7.518;2023-03-01T06:30:25;-6.00;53.40
10057;DHT22;5068;51.286;7.518;2023-03-01T06:31:59;-6.00;53.40
10057;DHT22;5068;51.286;7.518;2023-03-01T06:33:31;-6.00;53.40
10057;DHT22;5068;51.286;7.518;2023-03-01T06:35:05;-6.00;53.40
10057;DHT22;5068;51.286;7.518;2023-03-01T06:36:38;-6.00;54.10
10057;DHT22;5068;51.286;7.518;2023-03-01T06:38:12;-6.00;53.50
10057;DHT22;5068;51.286;7.518;2023-03-01T06:39:46;-6.00;53.50
10057;DHT22;5068;51.286;7.518;2023-03-01T06:41:19;-6.10;53.50
10057;DHT22;5068;51.286;7.518;2023-03-01T06:42:54;-6.10;53.40
10057;DHT22;5068;51.286;7.518;2023-03-01T06:46:03;-6.10;53.50
10057;DHT22;5068;51.286;7.518;2023-03-01T06:47:38;-6.10;53.60
10057;DHT22;5068;51.286;7.518;2023-03-01T06:49:11;-6.10;53.60
10057;DHT22;5068;51.286;7.518;2023-03-01T06:50:44;-6.10;53.60
10057;DHT22;5068;51.286;7.518;2023-03-01T06:52:18;-6.10;53.60
10057;DHT22;5068;51.286;7.518;2023-03-01T06:53:51;-6.10;53.60
10057;DHT22;5068;51.286;7.518;2023-03-01T06:55:24;-6.10;53.60
10057;DHT22;5068;51.286;7.518;2023-03-01T06:56:57;-6.10;53.70
10057;DHT22;5068;51.286;7.518;2023-03-01T06:58:32;-6.10;53.70
10057;DHT22;5068;51.286;7.518;2023-03-01T07:00:07;-6.10;53.80
10057;DHT22;5068;51.286;7.518;2023-03-01T07:01:41;-6.10;54.50
10057;DHT22;5068;51.286;7.518;2023-03-01T07:03:15;-6.10;54.00
10057;DHT22;5068;51.286;7.518;2023-03-01T07:04:49;-6.10;54.10
10057;DHT22;5068;51.286;7.518;2023-03-01T07:06:22;-6.10;54.20
10057;DHT22;5068;51.286;7.518;2023-03-01T07:07:56;-6.10;54.30
10057;DHT22;5068;51.286;7.518;2023-03-01T07:09:29;-6.00;54.30
10057;DHT22;5068;51.286;7.518;2023-03-01T07:11:03;-6.00;54.30
10057;DHT22;5068;51.286;7.518;2023-03-01T07:12:40;-6.00;54.30
10057;DHT22;5068;51.286;7.518;2023-03-01T07:14:15;-6.00;54.40
10057;DHT22;5068;51.286;7.518;2023-03-01T07:15:48;-6.00;54.20
10057;DHT22;5068;51.286;7.518;2023-03-01T07:17:22;-5.90;54.40
10057;DHT22;5068;51.286;7.518;2023-03-01T07:18:55;-6.00;54.40
10057;DHT22;5068;51.286;7.518;2023-03-01T07:20:30;-6.00;54.40
10057;DHT22;5068;51.286;7.518;2023-03-01T07:22:04;-5.90;54.50
10057;DHT22;5068;51.286;7.518;2023-03-01T07:23:39;-5.90;54.60
10057;DHT22;5068;51.286;7.518;2023-03-01T07:25:12;-5.90;54.60
10057;DHT22;5068;51.286;7.518;2023-03-01T07:26:48;-5.90;54.60
10057;DHT22;5068;51.286;7.518;2023-03-01T07:28:22;-5.80;54.70
10057;DHT22;5068;51.286;7.518;2023-03-01T07:29:57;-5.80;54.70
10057;DHT22;5068;51.286;7.518;2023-03-01T07:31:31;-5.80;54.70
10057;DHT22;5068;51.286;7.518;2023-03-01T07:33:04;-5.80;54.60
10057;DHT22;5068;51.286;7.518;2023-03-01T07:34:37;-5.80;55.00
10057;DHT22;5068;51.286;7.518;2023-03-01T07:36:14;-5.80;55.20
10057;DHT22;5068;51.286;7.518;2023-03-01T07:37:47;-5.70;54.70
10057;DHT22;5068;51.286;7.518;2023-03-01T07:39:20;-5.70;54.70
10057;DHT22;5068;51.286;7.518;2023-03-01T07:40:58;-5.70;54.70
10057;DHT22;5068;51.286;7.518;2023-03-01T07:42:32;-5.70;54.80
10057;DHT22;5068;51.286;7.518;2023-03-01T07:44:06;-5.60;54.80
10057;DHT22;5068;51.286;7.518;2023-03-01T07:45:40;-5.60;54.90
10057;DHT22;5068;51.286;7.518;2023-03-01T07:47:14;-5.60;55.10
10057;DHT22;5068;51.286;7.518;2023-03-01T07:48:47;-5.60;55.00
10057;DHT22;5068;51.286;7.518;2023-03-01T07:50:21;-5.60;55.00
10057;DHT22;5068;51.286;7.518;2023-03-01T07:51:55;-5.50;55.10
10057;DHT22;5068;51.286;7.518;2023-03-01T07:53:28;-5.50;55.00
10057;DHT22;5068;51.286;7.518;2023-03-01T07:55:03;-5.50;55.10
10057;DHT22;5068;51.286;7.518;2023-03-01T07:56:36;-5.50;55.10
10057;DHT22;5068;51.286;7.518;2023-03-01T07:58:09;-5.40;55.20
10057;DHT22;5068;51.286;7.518;2023-03-01T07:59:43;-5.40;55.30
10057;DHT22;5068;51.286;7.518;2023-03-01T08:01:19;-5.40;55.30
10057;DHT22;5068;51.286;7.518;2023-03-01T08:02:53;-5.30;55.60
10057;DHT22;5068;51.286;7.518;2023-03-01T08:04:27;-5.30;55.50
10057;DHT22;5068;51.286;7.518;2023-03-01T08:06:01;-5.30;55.50
10057;DHT22;5068;51.286;7.518;2023-03-01T08:07:35;-5.30;55.60
10057;DHT22;5068;51.286;7.518;2023-03-01T08:09:08;-5.20;55.60
10057;DHT22;5068;51.286;7.518;2023-03-01T08:10:41;-5.20;55.70
10057;DHT22;5068;51.286;7.518;2023-03-01T08:12:14;-5.10;56.00
10057;DHT22;5068;51.286;7.518;2023-03-01T08:13:48;-5.10;56.30
10057;DHT22;5068;51.286;7.518;2023-03-01T08:15:23;-5.00;56.50
10057;DHT22;5068;51.286;7.518;2023-03-01T08:16:58;-5.00;56.50
10057;DHT22;5068;51.286;7.518;2023-03-01T08:18:31;-5.00;56.40
10057;DHT22;5068;51.286;7.518;2023-03-01T08:20:05;-4.90;56.50
10057;DHT22;5068;51.286;7.518;2023-03-01T08:21:39;-4.80;56.50
10057;DHT22;5068;51.286;7.518;2023-03-01T08:23:13;-4.80;56.50
10057;DHT22;5068;51.286;7.518;2023-03-01T08:24:46;-4.70;56.60
10057;DHT22;5068;51.286;7.518;2023-03-01T08:26:21;-4.70;56.70
10057;DHT22;5068;51.286;7.518;2023-03-01T08:27:54;-4.60;56.90
10057;DHT22;5068;51.286;7.518;2023-03-01T08:29:27;-4.60;57.00
10057;DHT22;5068;51.286;7.518;2023-03-01T08:31:00;-4.50;57.20
10057;DHT22;5068;51.286;7.518;2023-03-01T08:32:37;-4.50;57.40
10057;DHT22;5068;51.286;7.518;2023-03-01T08:34:13;-4.40;57.70
10057;DHT22;5068;51.286;7.518;2023-03-01T08:35:47;-4.30;58.00
10057;DHT22;5068;51.286;7.518;2023-03-01T08:37:20;-4.20;58.20
10057;DHT22;5068;51.286;7.518;2023-03-01T08:38:54;-4.20;58.20
10057;DHT22;5068;51.286;7.518;2023-03-01T08:40:28;-4.10;58.50
10057;DHT22;5068;51.286;7.518;2023-03-01T08:42:01;-4.00;58.50
10057;DHT22;5068;51.286;7.518;2023-03-01T08:43:34;-3.90;58.80
10057;DHT22;5068;51.286;7.518;2023-03-01T08:45:08;-3.80;58.70
10057;DHT22;5068;51.286;7.518;2023-03-01T08:46:43;-3.80;58.70
10057;DHT22;5068;51.286;7.518;2023-03-01T08:48:18;-3.60;58.80
10057;DHT22;5068;51.286;7.518;2023-03-01T08:49:51;-3.60;58.70
10057;DHT22;5068;51.286;7.518;2023-03-01T08:51:26;-3.50;58.70
10057;DHT22;5068;51.286;7.518;2023-03-01T08:53:00;-3.40;58.80
10057;DHT22;5068;51.286;7.518;2023-03-01T08:54:34;-3.30;58.80
10057;DHT22;5068;51.286;7.518;2023-03-01T08:56:07;-3.20;58.80
10057;DHT22;5068;51.286;7.518;2023-03-01T08:57:41;-3.10;58.80
10057;DHT22;5068;51.286;7.518;2023-03-01T08:59:15;-3.00;58.80
10057;DHT22;5068;51.286;7.518;2023-03-01T09:00:49;-2.90;58.80
10057;DHT22;5068;51.286;7.518;2023-03-01T09:02:22;-2.90;58.60
10057;DHT22;5068;51.286;7.518;2023-03-01T09:03:57;-2.80;58.50
10057;DHT22;5068;51.286;7.518;2023-03-01T09:05:31;-2.70;58.50
10057;DHT22;5068;51.286;7.518;2023-03-01T09:07:05;-2.60;58.50
10057;DHT22;5068;51.286;7.518;2023-03-01T09:08:40;-2.50;58.60
10057;DHT22;5068;51.286;7.518;2023-03-01T09:10:15;-2.40;58.70
10057;DHT22;5068;51.286;7.518;2023-03-01T09:11:49;-2.30;58.70
10057;DHT22;5068;51.286;7.518;2023-03-01T09:13:22;-2.20;58.70
10057;DHT22;5068;51.286;7.518;2023-03-01T09:14:56;-2.10;58.80
10057;DHT22;5068;51.286;7.518;2023-03-01T09:16:30;-2.00;58.90
10057;DHT22;5068;51.286;7.518;2023-03-01T09:18:07;-1.90;58.80
10057;DHT22;5068;51.286;7.518;2023-03-01T09:19:42;-1.80;58.80
10057;DHT22;5068;51.286;7.518;2023-03-01T09:21:16;-1.70;58.80
10057;DHT22;5068;51.286;7.518;2023-03-01T09:23:08;-1.70;58.60
10057;DHT22;5068;51.286;7.518;2023-03-01T09:24:41;-1.50;58.60
10057;DHT22;5068;51.286;7.518;2023-03-01T09:26:17;-1.40;58.40
10057;DHT22;5068;51.286;7.518;2023-03-01T09:27:51;-1.40;58.30
10057;DHT22;5068;51.286;7.518;2023-03-01T09:29:25;-1.20;58.50
10057;DHT22;5068;51.286;7.518;2023-03-01T09:31:01;-1.10;58.30
10057;DHT22;5068;51.286;7.518;2023-03-01T09:32:34;-1.00;58.20
10057;DHT22;5068;51.286;7.518;2023-03-01T09:34:08;-0.90;58.00
10057;DHT22;5068;51.286;7.518;2023-03-01T09:35:44;-0.80;57.80
10057;DHT22;5068;51.286;7.518;2023-03-01T09:37:18;-0.70;57.60
10057;DHT22;5068;51.286;7.518;2023-03-01T09:38:52;-0.50;57.50
10057;DHT22;5068;51.286;7.518;2023-03-01T09:40:30;-0.40;57.30
10057;DHT22;5068;51.286;7.518;2023-03-01T09:42:05;-0.30;57.10
10057;DHT22;5068;51.286;7.518;2023-03-01T09:43:43;-0.20;56.80
10057;DHT22;5068;51.286;7.518;2023-03-01T09:45:29;0.00;56.70
10057;DHT22;5068;51.286;7.518;2023-03-01T09:47:11;0.10;56.30
10057;DHT22;5068;51.286;7.518;2023-03-01T09:48:51;0.20;56.00
10057;DHT22;5068;51.286;7.518;2023-03-01T09:50:33;0.40;55.70
10057;DHT22;5068;51.286;7.518;2023-03-01T09:52:20;0.50;55.50
10057;DHT22;5068;51.286;7.518;2023-03-01T09:53:58;0.60;55.00
10057;DHT22;5068;51.286;7.518;2023-03-01T09:55:37;0.80;54.90
10057;DHT22;5068;51.286;7.518;2023-03-01T09:57:18;0.90;54.40
10057;DHT22;5068;51.286;7.518;2023-03-01T09:59:10;1.00;54.20
10057;DHT22;5068;51.286;7.518;2023-03-01T10:00:59;1.20;53.80
10057;DHT22;5068;51.286;7.518;2023-03-01T10:02:45;1.30;53.50
10057;DHT22;5068;51.286;7.518;2023-03-01T10:04:28;1.40;53.20
10057;DHT22;5068;51.286;7.518;2023-03-01T10:06:15;1.60;52.80
10057;DHT22;5068;51.286;7.518;2023-03-01T10:08:29;1.70;52.50
10057;DHT22;5068;51.286;7.518;2023-03-01T10:10:16;1.80;52.10
10057;DHT22;5068;51.286;7.518;2023-03-01T10:11:59;2.00;51.90
10057;DHT22;5068;51.286;7.518;2023-03-01T10:13:43;2.10;51.70
10057;DHT22;5068;51.286;7.518;2023-03-01T10:15:28;2.20;51.60